Flemington, NJ (08822)

5:09 AM EDT on August 29, 2015 (GMT -0400)
Readington, NJ | | Change Station
CLOSE
Current Station
Personal Weather Station
Location: Flemington, NJ
Elevation: 128 ft
Nearby Weather Stations

Elev 128 ft 40.55 °N, 74.84 °W | Updated 21 seconds ago

Clear
Clear
52.5 °F
Feels Like 52.5 °F
N
0.0
Wind Variable Wind from SSW
Gusts 0.0 mph

Today
High -- | Low -- °F
--% Chance of Precip.
Yesterday
High -- | Low -- °F
Precip. -- in
6:23 AM 7:36 PM
Full, 100% visible
Pressure 30.18 in
Visibility 8.0 miles
Clouds Clear
Dew Point 52 °F
Humidity 98%
Rainfall 0.00 in
Snow Depth Not available.
UV 0.0 out of 12
Pollen 9.10 out of 12
Air Quality Not available.
Flu Activity Not available.
METAR KSMQ 290853Z AUTO 31003KT 8SM CLR 12/11 A3018 RMK AO2 SLP218 T01220111 58002
Pressure 30.18 in
Visibility 8.0 miles
Clouds Clear
Dew Point 52 °F
Humidity 98%
Rainfall 0.00 in
Snow Depth Not available.
UV 0.0 out of 12
Pollen 9.10 out of 12
Air Quality Not available.
Flu Activity Not available.
METAR KSMQ 290853Z AUTO 31003KT 8SM CLR 12/11 A3018 RMK AO2 SLP218 T01220111 58002

10-Day Weather Forecast

×

Almanac

Astronomy

Aug. 29, 2015 Rise Set
Actual Time
Civil Twilight
Nautical Twilight
Astronomical Twilight
Moon
Length of Visible Light
Length of Day
Tomorrow will be .
, % of the Moon is Illuminated

Today's Extremes

State Highs State Lows

Community

WunderPhotos

Upload Photos

1,850,634 photos uploaded!

WunderBlogs® & News

Nearby

Air Quality

  Air Quality AQ Index Pollutant
Not available.

Snow Depth

Station Depth Elevation

Earthquake Activity

City Distance Mag. Time & Date
Minimum magnitude displayed is 2.5.

Coastal Water Temperatures

Place Temperature

Stations

Nearby Weather Stations

Station Location Temp. Windchill Dew Point Humidity Wind Precip. Elev Updated Type